Terminal Aerodrome Forecast
Issued by NWS

Home | Current Version | Previous Version | Text Only | Print | Product List | Glossary On
Versions: 1 2 3 4 5 6 7 8 9 10 11 12 13 14 15 16 17 18 19
000
FTUS42 KTBW 032300
TAFLAL
TAF
KLAL 032324Z 0400/0424 11003KT P6SM SCT250
     FM040800 VRB03KT 4SM BR SCT010
      TEMPO 0409/0413 1SM BR BKN010
     FM041400 16010KT P6SM SCT015
     FM041700 19012KT P6SM SCT035
      AMD NOT SKED 0403/0412=

USA.gov is the U.S. government's official web portal to all federal, state and local government web resources and services.